Time;durP1;ratioP1;P1;durP2;ratioP2;P2;SDS_P1;SDS_P2;PMS_P1;PMS_P2;Temp;Humidity;BMP_temperature;BMP_pressure;BME280_temperature;BME280_humidity;BME280_pressure;Samples;Min_cycle;Max_cycle;Signal;HPM_P1;HPM_P2
2022/03/24 00:02:01;;;;;;;60.97;33.73;;;7.50;36.00;;;;;;4971195;28;20400;-76
2022/03/24 00:04:26;;;;;;;58.93;32.53;;;7.50;36.20;;;;;;4970465;28;20393;-76
2022/03/24 00:06:52;;;;;;;58.10;32.10;;;7.40;37.00;;;;;;4954556;28;20412;-76
2022/03/24 00:09:17;;;;;;;54.17;31.30;;;7.40;37.20;;;;;;4970942;28;20412;-76
2022/03/24 00:11:43;;;;;;;60.47;33.70;;;7.30;37.20;;;;;;4970855;28;20409;-77
2022/03/24 00:14:08;;;;;;;58.60;32.60;;;7.20;37.50;;;;;;4953127;28;20570;-75
2022/03/24 00:16:34;;;;;;;58.38;33.17;;;7.10;37.80;;;;;;4971619;28;20834;-75
2022/03/24 00:18:59;;;;;;;58.67;33.20;;;7.00;38.10;;;;;;4954521;28;20406;-76
2022/03/24 00:21:26;;;;;;;57.65;33.17;;;7.00;38.50;;;;;;4972330;28;20439;-76
2022/03/24 00:23:51;;;;;;;59.70;33.65;;;6.90;38.90;;;;;;4972351;28;20424;-75
2022/03/24 00:26:17;;;;;;;61.50;33.55;;;6.90;39.50;;;;;;4969336;28;20475;-75
2022/03/24 00:28:43;;;;;;;55.53;32.70;;;6.90;39.30;;;;;;4970699;28;20904;-76
2022/03/24 00:31:09;;;;;;;58.38;31.30;;;6.90;40.30;;;;;;4971357;28;20486;-76
2022/03/24 00:33:38;;;;;;;57.95;30.95;;;7.00;40.90;;;;;;4970876;28;20412;-79
2022/03/24 00:36:10;;;;;;;56.85;31.83;;;7.00;38.70;;;;;;4957035;28;20431;-78
2022/03/24 00:38:36;;;;;;;59.72;32.72;;;7.00;41.40;;;;;;4981678;28;20439;-75
2022/03/24 00:41:02;;;;;;;53.28;30.00;;;7.00;41.70;;;;;;4964972;28;20419;-75
2022/03/24 00:43:29;;;;;;;56.97;31.25;;;6.90;41.10;;;;;;4953011;28;20408;-76
2022/03/24 00:45:54;;;;;;;54.38;30.92;;;6.80;40.10;;;;;;4966470;28;20396;-76
2022/03/24 00:48:20;;;;;;;56.90;32.38;;;6.70;39.70;;;;;;4969877;28;20439;-76
2022/03/24 00:50:47;;;;;;;67.70;31.98;;;6.70;39.90;;;;;;4967969;28;20412;-75
2022/03/24 00:53:12;;;;;;;58.55;32.15;;;6.70;39.80;;;;;;4968209;28;20400;-76
2022/03/24 00:55:40;;;;;;;61.80;32.77;;;6.80;40.00;;;;;;4952491;28;20419;-75
2022/03/24 00:58:07;;;;;;;51.72;31.15;;;7.00;40.20;;;;;;4951004;28;20404;-75
2022/03/24 01:00:32;;;;;;;57.78;30.83;;;6.90;39.60;;;;;;4971249;28;20420;-74
2022/03/24 01:02:58;;;;;;;56.15;31.05;;;6.80;39.40;;;;;;4969629;28;20419;-74
2022/03/24 01:05:27;;;;;;;55.00;31.55;;;6.70;40.70;;;;;;4954692;28;20842;-74
2022/03/24 01:07:54;;;;;;;51.47;30.20;;;6.60;40.60;;;;;;4969830;28;20408;-74
2022/03/24 01:10:20;;;;;;;58.67;30.60;;;6.50;42.00;;;;;;4971210;28;20400;-74
2022/03/24 01:12:47;;;;;;;55.77;30.00;;;6.50;42.20;;;;;;4987327;28;20431;-74
2022/03/24 01:15:16;;;;;;;51.80;30.17;;;6.40;42.50;;;;;;4979351;28;20487;-74
2022/03/24 01:17:42;;;;;;;54.65;30.13;;;6.40;42.10;;;;;;4967720;28;20957;-75
2022/03/24 01:20:09;;;;;;;54.53;29.92;;;6.50;41.00;;;;;;4971213;28;20404;-75
2022/03/24 01:22:35;;;;;;;50.45;28.30;;;6.40;40.30;;;;;;4951778;28;20458;-75
2022/03/24 01:25:02;;;;;;;52.35;28.73;;;6.40;41.10;;;;;;4953016;28;20435;-75
2022/03/24 01:27:28;;;;;;;53.35;29.70;;;6.40;40.60;;;;;;4970072;28;20416;-74
2022/03/24 01:29:55;;;;;;;64.60;34.83;;;6.50;40.60;;;;;;4974075;28;20392;-75
2022/03/24 01:32:21;;;;;;;55.63;30.90;;;6.30;42.00;;;;;;4972696;28;20931;-75
2022/03/24 01:34:48;;;;;;;61.88;34.30;;;6.40;42.60;;;;;;4970601;28;20419;-75
2022/03/24 01:37:14;;;;;;;55.30;30.48;;;6.40;42.10;;;;;;4975663;28;20403;-76
2022/03/24 01:39:40;;;;;;;53.03;31.03;;;6.30;43.00;;;;;;4973211;28;20714;-74
2022/03/24 01:42:06;;;;;;;54.00;30.30;;;6.40;42.50;;;;;;4974257;28;20416;-75
2022/03/24 01:44:32;;;;;;;57.25;32.28;;;6.40;42.60;;;;;;4975510;28;20448;-75
2022/03/24 01:47:03;;;;;;;60.00;30.92;;;6.20;43.50;;;;;;4976888;28;20451;-75
2022/03/24 01:49:31;;;;;;;55.45;30.80;;;6.30;45.50;;;;;;4975192;28;20396;-74
2022/03/24 01:51:58;;;;;;;55.35;31.05;;;6.20;45.80;;;;;;4976477;28;20438;-74
2022/03/24 01:54:27;;;;;;;59.90;31.33;;;6.30;46.60;;;;;;4973184;28;20897;-75
2022/03/24 01:56:54;;;;;;;54.83;30.25;;;6.40;47.10;;;;;;4975476;28;20412;-76
2022/03/24 01:59:19;;;;;;;53.92;31.02;;;6.20;46.40;;;;;;4975936;28;20396;-73
2022/03/24 02:01:46;;;;;;;55.08;30.30;;;6.30;47.60;;;;;;4976132;28;20743;-74
2022/03/24 02:04:13;;;;;;;56.30;31.35;;;6.20;48.00;;;;;;4974037;28;20806;-74
2022/03/24 02:06:40;;;;;;;54.92;31.80;;;6.10;47.90;;;;;;4972435;28;20416;-74
2022/03/24 02:09:07;;;;;;;57.10;30.70;;;6.10;47.40;;;;;;4982906;28;20407;-74
2022/03/24 02:11:36;;;;;;;53.25;31.30;;;5.90;47.20;;;;;;4993036;28;20400;-74
2022/03/24 02:14:03;;;;;;;53.85;30.55;;;5.80;48.80;;;;;;4979394;28;20510;-74
2022/03/24 02:16:38;;;;;;;59.38;31.20;;;5.80;50.40;;;;;;4973524;28;20453;-74
2022/03/24 02:19:23;;;;;;;60.15;33.80;;;5.70;49.70;;;;;;4971217;28;20403;-74
2022/03/24 02:21:54;;;;;;;58.97;32.05;;;5.70;50.10;;;;;;4951951;28;20518;-74
2022/03/24 02:24:22;;;;;;;64.30;33.17;;;5.80;52.70;;;;;;4973931;28;20867;-74
2022/03/24 02:26:48;;;;;;;60.58;32.30;;;6.00;49.20;;;;;;4972710;28;20412;-75
2022/03/24 02:29:16;;;;;;;64.80;32.40;;;6.10;46.40;;;;;;4954632;28;20408;-74
2022/03/24 02:31:45;;;;;;;55.88;32.83;;;6.00;46.20;;;;;;4971258;28;20449;-75
2022/03/24 02:36:57;;;;;;;58.75;32.15;;;5.70;48.10;;;;;;4969640;28;20458;-75
2022/03/24 02:39:23;;;;;;;57.95;31.67;;;5.70;47.70;;;;;;4972281;28;20392;-74
2022/03/24 02:41:51;;;;;;;56.92;32.30;;;5.70;47.90;;;;;;4955731;28;20400;-75
2022/03/24 02:44:28;;;;;;;60.15;32.22;;;5.60;48.30;;;;;;4972344;28;20411;-75
2022/03/24 02:46:55;;;;;;;55.15;32.70;;;5.70;48.70;;;;;;4973372;28;20790;-75
2022/03/24 02:49:23;;;;;;;63.50;33.38;;;5.70;48.30;;;;;;4955460;28;20431;-73
2022/03/24 02:51:50;;;;;;;63.53;32.95;;;5.70;48.00;;;;;;4971020;28;20416;-73
2022/03/24 02:54:16;;;;;;;54.88;31.73;;;5.80;47.30;;;;;;4972668;28;20423;-73
2022/03/24 02:56:43;;;;;;;56.03;31.23;;;5.70;48.20;;;;;;4973387;28;20408;-76
2022/03/24 02:59:10;;;;;;;65.15;34.90;;;5.60;48.60;;;;;;4974021;28;20833;-74
2022/03/24 03:01:38;;;;;;;59.08;32.20;;;5.60;49.60;;;;;;4972679;28;20463;-75
2022/03/24 03:04:05;;;;;;;63.50;33.22;;;5.50;50.10;;;;;;4973230;28;20432;-74
2022/03/24 03:06:33;;;;;;;55.80;32.63;;;5.50;50.00;;;;;;4955189;28;20778;-74
2022/03/24 03:08:59;;;;;;;58.17;32.15;;;5.40;50.20;;;;;;4973075;28;20403;-74
2022/03/24 03:11:25;;;;;;;58.33;32.67;;;5.30;51.20;;;;;;4971800;28;20400;-73
2022/03/24 03:13:52;;;;;;;61.73;34.23;;;5.40;51.00;;;;;;4974264;28;20408;-74
2022/03/24 03:16:17;;;;;;;76.85;36.00;;;5.30;51.00;;;;;;4986277;28;20396;-75
2022/03/24 03:18:44;;;;;;;60.80;32.85;;;5.30;51.80;;;;;;4960436;28;20770;-75
2022/03/24 03:21:10;;;;;;;59.30;32.65;;;5.20;51.40;;;;;;4981138;28;20471;-74
2022/03/24 03:23:39;;;;;;;58.20;32.80;;;5.30;51.20;;;;;;4984925;28;20412;-74
2022/03/24 03:26:08;;;;;;;60.28;33.42;;;5.30;50.00;;;;;;4971294;28;20516;-74
2022/03/24 03:28:34;;;;;;;61.08;33.65;;;5.20;50.00;;;;;;4971734;28;20423;-75
2022/03/24 03:31:00;;;;;;;64.40;34.72;;;5.20;50.20;;;;;;4974624;28;20400;-74
2022/03/24 03:33:26;;;;;;;57.85;32.92;;;5.30;49.80;;;;;;4975258;28;20435;-75
2022/03/24 03:35:52;;;;;;;57.78;33.65;;;5.40;49.10;;;;;;4977717;28;20542;-74
2022/03/24 03:38:19;;;;;;;65.97;35.17;;;5.40;49.70;;;;;;4976913;28;20423;-75
2022/03/24 03:40:45;;;;;;;60.60;33.72;;;5.40;48.80;;;;;;4977466;28;20411;-75
2022/03/24 03:43:11;;;;;;;64.63;33.50;;;5.30;48.50;;;;;;4976140;28;20408;-75
2022/03/24 03:45:37;;;;;;;61.67;35.05;;;5.30;49.20;;;;;;4977124;28;20396;-75
2022/03/24 03:48:05;;;;;;;64.35;34.50;;;5.30;49.40;;;;;;4971301;28;20426;-75
2022/03/24 03:50:31;;;;;;;60.63;34.70;;;5.20;51.00;;;;;;4973753;28;20403;-75
2022/03/24 03:52:57;;;;;;;60.13;33.45;;;5.20;51.20;;;;;;4971819;28;20528;-75
2022/03/24 03:55:23;;;;;;;63.80;34.08;;;5.20;51.40;;;;;;4953508;28;20909;-75
2022/03/24 03:57:48;;;;;;;64.17;34.73;;;5.10;51.50;;;;;;4954853;28;20912;-75
2022/03/24 04:03:03;;;;;;;60.10;33.35;;;5.30;51.70;;;;;;4967783;28;20805;-74
2022/03/24 04:05:32;;;;;;;61.63;33.42;;;5.40;50.90;;;;;;4970635;28;20424;-74
2022/03/24 04:07:58;;;;;;;62.58;34.05;;;5.30;50.30;;;;;;4966815;28;20412;-74
2022/03/24 04:10:26;;;;;;;63.17;36.55;;;5.20;51.00;;;;;;4971567;28;20428;-74
2022/03/24 04:12:51;;;;;;;67.17;35.10;;;5.10;51.00;;;;;;4954163;28;20518;-74
2022/03/24 04:15:17;;;;;;;63.72;34.13;;;5.10;51.00;;;;;;4971757;28;20400;-74
2022/03/24 04:17:43;;;;;;;58.33;33.60;;;5.00;50.40;;;;;;4971954;28;20408;-74
2022/03/24 04:20:10;;;;;;;57.70;33.13;;;5.00;49.80;;;;;;4970780;28;20423;-75
2022/03/24 04:22:36;;;;;;;68.28;35.88;;;5.10;48.60;;;;;;4970257;28;20538;-75
2022/03/24 04:25:02;;;;;;;71.63;38.03;;;5.00;48.20;;;;;;4971809;28;20451;-74
2022/03/24 04:27:28;;;;;;;62.88;34.63;;;5.00;49.00;;;;;;4971636;28;20415;-74
2022/03/24 04:29:53;;;;;;;67.40;35.83;;;5.00;49.20;;;;;;4971595;28;20404;-75
2022/03/24 04:32:19;;;;;;;69.63;36.90;;;5.10;48.70;;;;;;4970583;28;20768;-75
2022/03/24 04:34:45;;;;;;;72.40;36.80;;;5.20;47.80;;;;;;4971681;28;20404;-75
2022/03/24 04:37:11;;;;;;;72.50;36.63;;;5.20;47.30;;;;;;4971404;28;20408;-75
2022/03/24 04:39:36;;;;;;;69.87;36.27;;;5.30;46.40;;;;;;4970655;28;20431;-73
2022/03/24 04:42:03;;;;;;;57.70;35.03;;;5.20;45.90;;;;;;4969338;28;20408;-75
2022/03/24 04:44:29;;;;;;;70.15;36.47;;;5.30;45.80;;;;;;4971157;28;20439;-75
2022/03/24 04:46:54;;;;;;;70.20;35.72;;;5.30;46.50;;;;;;4951407;28;20511;-74
2022/03/24 04:49:20;;;;;;;62.58;35.22;;;5.30;46.20;;;;;;4972817;28;20408;-74
2022/03/24 04:51:45;;;;;;;69.07;35.90;;;5.30;45.90;;;;;;4972578;28;20415;-75
2022/03/24 04:54:11;;;;;;;67.28;36.17;;;5.30;45.40;;;;;;4957523;28;20782;-75
2022/03/24 04:56:36;;;;;;;68.68;36.38;;;5.30;45.00;;;;;;4972625;28;20423;-74
2022/03/24 04:59:02;;;;;;;68.47;36.87;;;5.30;44.90;;;;;;4975896;28;20404;-75
2022/03/24 05:01:28;;;;;;;67.07;36.40;;;5.30;45.40;;;;;;4957648;28;20530;-74
2022/03/24 05:03:53;;;;;;;67.83;35.70;;;5.30;45.30;;;;;;4976169;28;20974;-74
2022/03/24 05:06:19;;;;;;;66.83;37.37;;;5.30;45.60;;;;;;4976079;28;20492;-74
2022/03/24 05:08:44;;;;;;;69.17;35.23;;;5.30;45.10;;;;;;4975729;28;20412;-74
2022/03/24 05:11:10;;;;;;;66.47;35.77;;;5.20;45.20;;;;;;4976703;28;20482;-74
2022/03/24 05:13:36;;;;;;;69.73;36.03;;;5.30;45.30;;;;;;4983675;28;20775;-74
2022/03/24 05:16:01;;;;;;;65.93;35.50;;;5.40;43.80;;;;;;4982373;28;20447;-74
2022/03/24 05:18:27;;;;;;;65.30;35.35;;;5.40;44.00;;;;;;4987812;28;20499;-75
2022/03/24 05:20:53;;;;;;;67.90;37.13;;;5.30;44.70;;;;;;4983034;28;20957;-76
2022/03/24 05:23:19;;;;;;;63.00;35.70;;;5.20;45.00;;;;;;4976875;28;20464;-73
2022/03/24 05:25:47;;;;;;;75.13;39.08;;;5.20;46.10;;;;;;4974458;28;20420;-74
2022/03/24 05:28:14;;;;;;;66.20;35.00;;;5.20;46.00;;;;;;4958080;28;20465;-75
2022/03/24 05:30:40;;;;;;;65.18;35.33;;;5.20;46.40;;;;;;4976007;28;20408;-74
2022/03/24 05:33:05;;;;;;;68.13;35.05;;;5.20;46.20;;;;;;4973947;28;20414;-75
2022/03/24 05:35:35;;;;;;;68.80;36.90;;;5.20;47.40;;;;;;4959854;28;20525;-74
2022/03/24 05:38:02;;;;;;;73.72;38.20;;;5.20;46.30;;;;;;4976533;28;20411;-74
2022/03/24 05:40:27;;;;;;;70.47;38.83;;;5.20;46.60;;;;;;4974205;28;20454;-76
2022/03/24 05:42:53;;;;;;;73.70;37.70;;;5.20;47.30;;;;;;4956155;28;20439;-74
2022/03/24 05:45:19;;;;;;;78.53;38.42;;;5.20;46.80;;;;;;4957447;28;20415;-76
2022/03/24 05:47:44;;;;;;;71.30;36.63;;;5.20;46.80;;;;;;4964134;28;20411;-75
2022/03/24 05:50:10;;;;;;;71.57;39.10;;;5.20;46.70;;;;;;4989443;28;20460;-76
2022/03/24 05:52:36;;;;;;;67.68;36.50;;;5.20;46.70;;;;;;4988982;28;20424;-76
2022/03/24 05:55:02;;;;;;;72.88;37.00;;;5.20;47.20;;;;;;4978875;28;20399;-75
2022/03/24 05:57:28;;;;;;;72.53;38.90;;;5.30;46.60;;;;;;4978366;28;20450;-76
2022/03/24 05:59:53;;;;;;;72.30;38.57;;;5.30;46.20;;;;;;4976813;28;20919;-74
2022/03/24 06:02:20;;;;;;;76.45;37.95;;;5.40;45.90;;;;;;4981641;28;20399;-74
2022/03/24 06:04:47;;;;;;;71.28;38.65;;;5.40;45.80;;;;;;4981183;28;20476;-75
2022/03/24 06:07:14;;;;;;;73.23;37.23;;;5.50;45.30;;;;;;4962791;28;20887;-76
2022/03/24 06:09:40;;;;;;;72.38;38.03;;;5.60;45.10;;;;;;4963529;28;20411;-74
2022/03/24 06:12:09;;;;;;;72.28;36.83;;;5.60;44.70;;;;;;4977920;28;20773;-74
2022/03/24 06:14:35;;;;;;;72.23;38.90;;;5.80;43.00;;;;;;4972850;28;20403;-74
2022/03/24 06:17:01;;;;;;;67.82;37.40;;;5.80;42.00;;;;;;4973495;28;20471;-74
2022/03/24 06:19:27;;;;;;;70.05;36.10;;;5.90;42.10;;;;;;4974061;28;20475;-74
2022/03/24 06:21:52;;;;;;;74.40;38.90;;;6.00;40.60;;;;;;4974428;28;20415;-75
2022/03/24 06:24:18;;;;;;;71.50;37.27;;;6.10;40.60;;;;;;4974234;28;20408;-75
2022/03/24 06:26:43;;;;;;;76.87;38.10;;;6.10;41.00;;;;;;4974178;28;20424;-75
2022/03/24 06:29:13;;;;;;;62.33;35.83;;;6.20;39.40;;;;;;4974921;28;20410;-75
2022/03/24 06:31:42;;;;;;;72.20;36.58;;;6.40;38.50;;;;;;4975217;28;20485;-75
2022/03/24 06:34:08;;;;;;;73.57;37.78;;;6.40;38.10;;;;;;4977695;28;21125;-75
2022/03/24 06:36:34;;;;;;;68.97;37.60;;;6.40;38.10;;;;;;4976219;28;20414;-76
2022/03/24 06:39:00;;;;;;;69.78;36.30;;;6.60;37.20;;;;;;4975468;28;20412;-75
2022/03/24 06:41:27;;;;;;;65.70;37.30;;;6.70;36.40;;;;;;4971734;28;20483;-76
2022/03/24 06:43:55;;;;;;;68.38;36.17;;;6.70;36.30;;;;;;4976208;28;20928;-76
2022/03/24 06:46:22;;;;;;;69.00;37.07;;;6.80;35.70;;;;;;4957863;28;20408;-76
2022/03/24 06:48:47;;;;;;;72.32;37.30;;;6.80;35.10;;;;;;4958128;28;20435;-75
2022/03/24 06:51:13;;;;;;;73.70;37.80;;;6.90;34.70;;;;;;4975104;28;20404;-75
2022/03/24 06:53:38;;;;;;;70.67;38.07;;;7.00;34.60;;;;;;4975871;28;20408;-75
2022/03/24 06:56:05;;;;;;;72.53;37.23;;;7.10;34.10;;;;;;4975909;28;20410;-73
2022/03/24 06:58:30;;;;;;;68.50;37.72;;;7.10;33.90;;;;;;4975104;28;20455;-74
2022/03/24 07:00:56;;;;;;;72.07;36.77;;;7.20;33.60;;;;;;4969719;28;20527;-76
2022/03/24 07:03:22;;;;;;;76.57;37.43;;;7.30;33.50;;;;;;4974503;28;20467;-76
2022/03/24 07:05:47;;;;;;;69.65;38.10;;;7.50;33.10;;;;;;4955445;28;20420;-77
2022/03/24 07:08:13;;;;;;;72.97;37.30;;;7.50;32.80;;;;;;4972829;28;20797;-76
2022/03/24 07:10:39;;;;;;;72.60;37.72;;;7.60;32.90;;;;;;4973225;28;20425;-76
2022/03/24 07:13:06;;;;;;;71.97;37.70;;;7.60;31.70;;;;;;4973202;28;20555;-76
2022/03/24 07:15:33;;;;;;;72.82;38.65;;;7.60;31.50;;;;;;4959020;28;20400;-75
2022/03/24 07:17:58;;;;;;;74.28;38.47;;;7.60;31.40;;;;;;4977165;28;20422;-76
2022/03/24 07:20:24;;;;;;;70.07;36.45;;;7.70;31.50;;;;;;4958363;28;20419;-76
2022/03/24 07:22:50;;;;;;;70.50;38.28;;;7.90;31.60;;;;;;4964052;28;20431;-76
2022/03/24 07:25:15;;;;;;;73.03;40.40;;;8.10;31.50;;;;;;4981877;28;20444;-75
2022/03/24 07:27:42;;;;;;;73.33;38.00;;;8.20;30.00;;;;;;4979727;28;20793;-77
2022/03/24 07:30:09;;;;;;;71.45;38.78;;;8.40;29.80;;;;;;4978770;28;20396;-76
2022/03/24 07:32:36;;;;;;;73.95;38.95;;;8.50;30.10;;;;;;4977533;28;20772;-75
2022/03/24 07:35:04;;;;;;;74.30;38.70;;;8.50;29.80;;;;;;4974542;28;20412;-75
2022/03/24 07:37:30;;;;;;;77.00;37.63;;;8.40;29.70;;;;;;4960517;28;20889;-75
2022/03/24 07:39:56;;;;;;;74.53;40.88;;;8.40;30.40;;;;;;4971122;28;20498;-77
2022/03/24 07:42:22;;;;;;;70.80;39.50;;;8.50;30.00;;;;;;4960812;28;20444;-76
2022/03/24 07:44:48;;;;;;;76.93;40.20;;;8.60;29.80;;;;;;4985182;28;20436;-78
2022/03/24 07:47:14;;;;;;;71.78;38.55;;;8.70;29.40;;;;;;4971552;28;20444;-74
2022/03/24 07:49:39;;;;;;;76.72;38.13;;;8.90;30.60;;;;;;4978722;28;20421;-74
2022/03/24 07:52:12;;;;;;;73.30;40.10;;;9.00;29.40;;;;;;4957687;28;20420;-72
2022/03/24 07:54:55;;;;;;;75.53;41.10;;;9.10;29.10;;;;;;4974360;28;20404;-75
2022/03/24 07:57:22;;;;;;;75.20;40.40;;;9.30;29.10;;;;;;4977691;28;20412;-74
2022/03/24 07:59:48;;;;;;;73.32;40.08;;;9.50;28.40;;;;;;4976272;28;20408;-75
2022/03/24 08:02:14;;;;;;;76.50;42.27;;;9.60;27.60;;;;;;4984242;28;20414;-75
2022/03/24 08:04:39;;;;;;;84.10;42.03;;;9.70;26.10;;;;;;4989091;28;20500;-76
2022/03/24 08:07:05;;;;;;;76.57;42.47;;;9.90;25.60;;;;;;4972221;28;20420;-74
2022/03/24 08:09:32;;;;;;;78.65;40.65;;;9.90;25.00;;;;;;4950479;28;20422;-75
2022/03/24 08:11:58;;;;;;;80.70;41.15;;;10.00;25.10;;;;;;4971024;28;20412;-75
2022/03/24 08:14:24;;;;;;;80.05;41.85;;;10.00;25.00;;;;;;4972325;28;20412;-76
2022/03/24 08:16:50;;;;;;;77.97;43.47;;;10.20;24.40;;;;;;4970938;28;20507;-74
2022/03/24 08:19:15;;;;;;;86.28;44.38;;;10.30;24.10;;;;;;4956810;28;20396;-76
2022/03/24 08:21:42;;;;;;;88.68;44.40;;;10.40;22.60;;;;;;4954546;28;20933;-75
2022/03/24 08:24:08;;;;;;;78.27;43.60;;;10.50;22.70;;;;;;4972740;28;20537;-75
2022/03/24 08:26:37;;;;;;;81.13;44.53;;;10.60;21.50;;;;;;4970451;28;20447;-76
2022/03/24 08:29:04;;;;;;;80.57;43.28;;;10.60;21.60;;;;;;4974644;28;20442;-76
2022/03/24 08:31:30;;;;;;;90.00;43.67;;;10.70;21.90;;;;;;4973884;28;20420;-76
2022/03/24 08:33:57;;;;;;;84.65;43.88;;;10.70;21.60;;;;;;4970540;28;20408;-76
2022/03/24 08:36:22;;;;;;;81.95;44.97;;;10.70;21.30;;;;;;4972763;28;20412;-73
2022/03/24 08:38:48;;;;;;;90.03;44.80;;;10.70;21.50;;;;;;4970355;28;20450;-75
2022/03/24 08:41:13;;;;;;;87.37;44.30;;;10.80;21.20;;;;;;4956425;28;20420;-76
2022/03/24 08:43:39;;;;;;;90.70;45.27;;;10.90;21.30;;;;;;4973032;28;20424;-75
2022/03/24 08:46:08;;;;;;;83.77;45.67;;;11.10;21.10;;;;;;4976614;28;21011;-76
2022/03/24 08:48:37;;;;;;;87.45;45.63;;;11.30;20.50;;;;;;4978373;28;20425;-76
2022/03/24 08:51:03;;;;;;;87.28;44.80;;;11.40;20.20;;;;;;4979827;28;20776;-76
2022/03/24 08:53:29;;;;;;;85.03;45.95;;;11.60;19.80;;;;;;4960515;28;20837;-74
2022/03/24 08:55:55;;;;;;;83.63;44.13;;;11.70;19.60;;;;;;4975779;28;20416;-73
2022/03/24 08:58:21;;;;;;;88.22;43.97;;;11.70;19.10;;;;;;4974492;28;20540;-75
2022/03/24 09:00:48;;;;;;;78.05;45.95;;;11.80;19.00;;;;;;4981642;28;20905;-75
2022/03/24 09:03:13;;;;;;;80.03;43.00;;;12.00;17.50;;;;;;4975978;28;20582;-75
2022/03/24 09:05:39;;;;;;;82.53;45.08;;;12.30;18.40;;;;;;4974359;28;20447;-75
2022/03/24 09:08:06;;;;;;;78.70;45.17;;;12.30;16.50;;;;;;4976199;28;20922;-73
2022/03/24 09:10:32;;;;;;;90.97;44.95;;;12.40;16.30;;;;;;4957616;28;20832;-75
2022/03/24 09:12:57;;;;;;;85.38;44.97;;;12.70;16.30;;;;;;4973738;28;20454;-76
2022/03/24 09:15:23;;;;;;;88.43;45.58;;;13.10;16.40;;;;;;4973091;28;20431;-76
2022/03/24 09:17:49;;;;;;;86.07;47.70;;;13.20;16.50;;;;;;4972783;28;20810;-76
2022/03/24 09:20:18;;;;;;;91.70;46.63;;;13.10;16.10;;;;;;4956830;28;20436;-76
2022/03/24 09:22:45;;;;;;;94.67;48.93;;;13.20;16.30;;;;;;4973356;28;20446;-76
2022/03/24 09:25:13;;;;;;;89.60;46.63;;;13.20;16.20;;;;;;4977360;28;20441;-75
2022/03/24 09:27:39;;;;;;;93.35;46.17;;;13.20;15.80;;;;;;4980234;28;20416;-74
2022/03/24 09:30:07;;;;;;;84.97;45.72;;;13.40;16.10;;;;;;4971530;28;20412;-76
2022/03/24 09:32:33;;;;;;;86.03;45.80;;;13.50;16.00;;;;;;4953520;28;20396;-75
2022/03/24 09:34:59;;;;;;;83.05;47.15;;;13.70;15.10;;;;;;4971542;28;20435;-75
2022/03/24 09:37:25;;;;;;;83.88;46.80;;;13.70;14.80;;;;;;4956011;28;20893;-76
2022/03/24 09:39:51;;;;;;;86.22;47.20;;;13.70;13.90;;;;;;4956012;28;20857;-77
2022/03/24 09:42:18;;;;;;;87.13;48.20;;;13.80;14.20;;;;;;4973251;28;20443;-77
2022/03/24 09:44:45;;;;;;;94.57;48.85;;;13.80;14.10;;;;;;4966840;28;20416;-75
2022/03/24 09:47:12;;;;;;;90.72;48.67;;;13.90;14.20;;;;;;4971308;28;20463;-76
2022/03/24 09:49:42;;;;;;;101.93;48.63;;;13.90;13.90;;;;;;4973161;28;20418;-74
2022/03/24 09:52:12;;;;;;;91.93;49.30;;;13.90;14.10;;;;;;4977574;28;20424;-77
2022/03/24 09:54:39;;;;;;;90.40;46.30;;;14.10;14.10;;;;;;4977906;28;20458;-77
2022/03/24 09:57:07;;;;;;;92.38;49.53;;;14.40;13.70;;;;;;4975955;28;20404;-75
2022/03/24 09:59:33;;;;;;;93.40;49.30;;;14.50;13.10;;;;;;4974587;28;20412;-75
2022/03/24 10:02:01;;;;;;;87.20;49.60;;;14.80;11.10;;;;;;4976225;28;20483;-76
2022/03/24 10:04:26;;;;;;;90.55;49.20;;;14.80;11.10;;;;;;4958029;28;20440;-75
2022/03/24 10:07:01;;;;;;;92.77;47.47;;;14.60;12.10;;;;;;4976539;28;20514;-76
2022/03/24 10:09:41;;;;;;;82.72;45.58;;;14.90;9.50;;;;;;4974987;28;20420;-75
2022/03/24 10:12:08;;;;;;;90.70;46.13;;;14.80;8.90;;;;;;4975398;28;20447;-74
2022/03/24 10:14:35;;;;;;;83.95;46.33;;;14.80;8.30;;;;;;4976467;28;20904;-76
2022/03/24 10:17:11;;;;;;;80.97;46.58;;;14.90;8.70;;;;;;4958996;28;20616;-76
2022/03/24 10:19:38;;;;;;;86.25;45.90;;;14.90;9.10;;;;;;4973921;28;20416;-75
2022/03/24 10:22:08;;;;;;;85.30;46.07;;;15.10;8.50;;;;;;4974266;28;20781;-75
2022/03/24 10:24:40;;;;;;;96.93;48.00;;;15.10;8.40;;;;;;4975296;28;20420;-75
2022/03/24 10:27:06;;;;;;;85.72;45.92;;;15.20;8.40;;;;;;4975676;28;20416;-76
2022/03/24 10:29:32;;;;;;;79.13;43.33;;;15.20;7.60;;;;;;4973732;28;20415;-74
2022/03/24 10:32:04;;;;;;;87.67;46.80;;;15.10;7.00;;;;;;4974814;28;20551;-77
2022/03/24 10:34:39;;;;;;;87.15;47.83;;;15.20;8.00;;;;;;4970992;28;20770;-75
2022/03/24 10:37:19;;;;;;;82.35;45.05;;;15.30;8.20;;;;;;4978030;28;20495;-78
2022/03/24 10:40:05;;;;;;;81.40;43.20;;;15.40;6.30;;;;;;4970349;28;20412;-75
2022/03/24 10:42:33;;;;;;;76.50;44.25;;;15.60;5.90;;;;;;4956577;28;20420;-74
2022/03/24 10:45:09;;;;;;;75.03;44.00;;;15.60;5.40;;;;;;4974515;28;20730;-76
2022/03/24 10:47:56;;;;;;;89.88;48.00;;;15.60;5.20;;;;;;4973908;28;20413;-77
2022/03/24 10:50:28;;;;;;;83.70;47.67;;;16.00;6.40;;;;;;4970703;28;20554;-74
2022/03/24 10:52:59;;;;;;;78.53;44.00;;;15.90;6.60;;;;;;4971982;28;20707;-75
2022/03/24 10:55:59;;;;;;;84.75;47.05;;;15.80;5.10;;;;;;4970874;28;20416;-75
2022/03/24 10:58:33;;;;;;;83.90;45.17;;;15.80;5.60;;;;;;4980135;28;20396;-76
2022/03/24 11:01:01;;;;;;;82.68;45.05;;;15.70;5.90;;;;;;4970567;28;20439;-75
2022/03/24 11:03:27;;;;;;;87.53;44.53;;;15.80;6.60;;;;;;4982423;28;20783;-75
2022/03/24 11:06:11;;;;;;;81.27;45.77;;;15.80;6.20;;;;;;4987613;28;20513;-75
2022/03/24 11:08:37;;;;;;;86.23;47.17;;;16.00;5.40;;;;;;4975037;28;20782;-74
2022/03/24 11:11:08;;;;;;;80.80;44.53;;;16.10;5.50;;;;;;4970122;28;20409;-75
2022/03/24 11:13:43;;;;;;;80.93;45.58;;;16.10;5.20;;;;;;4980382;28;20433;-75
2022/03/24 11:16:11;;;;;;;80.18;46.13;;;16.10;4.80;;;;;;4973046;28;20408;-74
2022/03/24 11:18:37;;;;;;;84.32;46.90;;;16.20;4.90;;;;;;4973726;28;20515;-75
2022/03/24 11:21:08;;;;;;;77.25;44.60;;;16.30;5.30;;;;;;4966565;28;20490;-75
2022/03/24 11:23:39;;;;;;;89.47;49.38;;;16.40;3.70;;;;;;4953603;28;20850;-76
2022/03/24 11:26:07;;;;;;;84.80;46.50;;;16.40;5.00;;;;;;4973900;28;20507;-75
2022/03/24 11:28:36;;;;;;;82.70;46.65;;;16.50;5.30;;;;;;4954109;28;20404;-74
2022/03/24 11:31:05;;;;;;;77.15;44.30;;;16.70;4.30;;;;;;4977280;28;20426;-76
2022/03/24 11:33:46;;;;;;;82.97;44.00;;;16.70;3.50;;;;;;4974816;28;20578;-74
2022/03/24 11:36:14;;;;;;;78.93;45.17;;;16.70;3.50;;;;;;4974992;28;20451;-77
2022/03/24 11:38:41;;;;;;;83.68;48.78;;;16.60;3.80;;;;;;4953642;28;20423;-76
2022/03/24 11:41:16;;;;;;;81.57;46.88;;;16.60;4.30;;;;;;4968137;28;20420;-77
2022/03/24 11:43:49;;;;;;;80.20;46.25;;;16.70;4.00;;;;;;4970676;28;20813;-77
2022/03/24 11:46:27;;;;;;;90.25;47.33;;;16.90;3.20;;;;;;4971386;28;20422;-77
2022/03/24 11:49:20;;;;;;;88.13;47.95;;;16.90;3.10;;;;;;4969467;28;20422;-75
2022/03/24 11:51:49;;;;;;;86.87;49.23;;;17.00;2.60;;;;;;4966887;28;20423;-75
2022/03/24 11:54:33;;;;;;;87.47;46.85;;;17.00;3.10;;;;;;4972540;28;20435;-77
2022/03/24 11:57:28;;;;;;;81.38;48.20;;;17.40;1.90;;;;;;4968818;28;20920;-77
2022/03/24 12:00:12;;;;;;;78.87;44.77;;;17.30;1.70;;;;;;4971494;28;20508;-74
2022/03/24 12:02:43;;;;;;;74.13;42.13;;;17.20;1.30;;;;;;4974592;28;20404;-76
2022/03/24 12:05:10;;;;;;;73.03;41.90;;;17.10;1.00;;;;;;4968342;28;20970;-75
2022/03/24 12:07:37;;;;;;;82.45;45.72;;;17.10;1.00;;;;;;4973392;28;20420;-76
2022/03/24 12:10:11;;;;;;;76.85;46.05;;;17.20;1.30;;;;;;4973665;28;20516;-77
2022/03/24 12:12:38;;;;;;;79.88;44.75;;;17.20;2.00;;;;;;4971748;28;20427;-75
2022/03/24 12:15:22;;;;;;;80.03;43.30;;;17.20;1.40;;;;;;4973407;28;20850;-76
2022/03/24 12:18:18;;;;;;;72.07;44.80;;;17.30;1.00;;;;;;4970454;28;20412;-76
2022/03/24 12:20:46;;;;;;;77.93;44.50;;;17.30;2.60;;;;;;4947293;28;20420;-76
2022/03/24 12:23:13;;;;;;;77.82;45.80;;;17.40;1.00;;;;;;4952870;28;20913;-76
2022/03/24 12:25:39;;;;;;;71.05;43.45;;;17.50;1.30;;;;;;4978293;28;20410;-78
2022/03/24 12:28:11;;;;;;;70.40;39.47;;;17.60;1.00;;;;;;4971565;28;20423;-74
2022/03/24 12:30:53;;;;;;;82.93;45.23;;;17.50;1.00;;;;;;4968538;28;20423;-75
2022/03/24 12:33:32;;;;;;;81.57;45.35;;;17.40;1.00;;;;;;4968619;28;20436;-75
2022/03/24 12:35:58;;;;;;;82.57;46.53;;;17.50;1.00;;;;;;4970012;28;20420;-77
2022/03/24 12:38:33;;;;;;;82.27;44.73;;;17.70;1.10;;;;;;4969610;28;20404;-76
2022/03/24 12:41:09;;;;;;;80.97;43.67;;;17.70;1.00;;;;;;4954929;28;20420;-76
2022/03/24 12:43:57;;;;;;;81.13;45.17;;;17.50;1.00;;;;;;4972849;28;20515;-76
2022/03/24 12:46:36;;;;;;;78.22;45.15;;;17.50;1.00;;;;;;4972407;28;20515;-79